Salt Lake City, Utah
Traffic Map
Current Weather Conditions
Salt Lake City, Utah
Broken Clouds
Broken Clouds
13°
Feels Like: 13°
Wind Chill: 13° Ceiling: 7500
Heat Index: 13° Visibility: 10mi
Dew Point: Wind: 0mph
Humidity: 77% Direction: ° ()
Pressure: 29.98in Gusts: 0mph
Raw Report DataKSLC 301453Z 00000KT 10SM SCT060 BKN075 BKN095 BKN200 13/09 A2998 RMK AO2 RAB40E51 SLP126 TCU DSNT NW ACSL DSNT SW P0000 60000 T01280089 53001 $
Traffic Incident Summary
Active as of:
Severity:
Category:
InformationThere was an issue retrieving the traffic information for this location. Please try a different location or try again shortly.
Advertisements
Track Severe Weather on mobile